Time;durP1;ratioP1;P1;durP2;ratioP2;P2;SDS_P1;SDS_P2;PMS_P1;PMS_P2;Temp;Humidity;BMP_temperature;BMP_pressure;BME280_temperature;BME280_humidity;BME280_pressure;Samples;Min_cycle;Max_cycle;Signal;HPM_P1;HPM_P2
2021/12/10 00:01:16;;;;;;;46.50;23.37;;;4.40;99.90;;;;;;5090616;28;20223;-81
2021/12/10 00:03:49;;;;;;;49.87;24.83;;;4.40;99.90;;;;;;5090980;28;20208;-82
2021/12/10 00:06:20;;;;;;;42.97;24.50;;;4.40;99.90;;;;;;5090896;28;20216;-81
2021/12/10 00:08:54;;;;;;;39.03;20.83;;;4.40;99.90;;;;;;5104496;27;20229;-82
2021/12/10 00:11:26;;;;;;;48.87;22.33;;;4.40;99.90;;;;;;5110182;28;20227;-82
2021/12/10 00:13:53;;;;;;;33.67;19.07;;;4.40;99.90;;;;;;5092835;28;20216;-82
2021/12/10 00:16:21;;;;;;;42.63;20.43;;;4.40;99.90;;;;;;5091052;28;20237;-82
2021/12/10 00:18:54;;;;;;;38.43;19.60;;;4.30;99.90;;;;;;5090422;27;20212;-82
2021/12/10 00:21:23;;;;;;;35.23;19.43;;;4.30;99.90;;;;;;5089628;28;20205;-82
2021/12/10 00:23:51;;;;;;;33.97;20.03;;;4.30;99.90;;;;;;5091124;27;20212;-81
2021/12/10 00:26:20;;;;;;;36.03;19.00;;;4.30;99.90;;;;;;5089274;28;20220;-79
2021/12/10 00:28:48;;;;;;;42.47;19.73;;;4.30;99.90;;;;;;5091142;28;20539;-80
2021/12/10 00:31:21;;;;;;;42.80;21.40;;;4.30;99.90;;;;;;5090089;28;20200;-82
2021/12/10 00:33:54;;;;;;;37.03;21.80;;;4.20;99.90;;;;;;5089460;28;20297;-83
2021/12/10 00:36:21;;;;;;;37.43;20.30;;;4.20;99.90;;;;;;5089063;28;20199;-82
2021/12/10 00:38:50;;;;;;;32.67;18.93;;;4.20;99.90;;;;;;5088798;28;20197;-81
2021/12/10 00:41:18;;;;;;;43.53;20.97;;;4.20;99.90;;;;;;5089352;28;20204;-82
2021/12/10 00:43:45;;;;;;;33.57;19.27;;;4.20;99.90;;;;;;5104232;28;20211;-82
2021/12/10 00:46:12;;;;;;;33.50;18.87;;;4.20;99.90;;;;;;5108883;28;20914;-80
2021/12/10 00:48:40;;;;;;;36.43;19.10;;;4.20;99.90;;;;;;5108139;27;20208;-82
2021/12/10 00:51:10;;;;;;;36.63;19.27;;;4.20;99.90;;;;;;5089392;28;20820;-82
2021/12/10 00:53:38;;;;;;;40.43;19.90;;;4.10;99.90;;;;;;5102557;28;20214;-82
2021/12/10 00:56:06;;;;;;;40.80;17.57;;;4.10;99.90;;;;;;5108783;28;20569;-82
2021/12/10 00:58:34;;;;;;;32.03;17.43;;;4.10;99.90;;;;;;5108597;28;20208;-82
2021/12/10 01:01:04;;;;;;;30.53;17.77;;;4.10;99.90;;;;;;5099626;27;20585;-80
2021/12/10 01:03:35;;;;;;;34.53;17.83;;;4.10;99.90;;;;;;5088599;28;20204;-80
2021/12/10 01:06:05;;;;;;;37.23;18.23;;;4.10;99.90;;;;;;5088883;28;20228;-81
2021/12/10 01:08:34;;;;;;;32.73;17.77;;;4.10;99.90;;;;;;5089523;27;20224;-82
2021/12/10 01:11:05;;;;;;;36.97;18.13;;;4.10;99.90;;;;;;5088710;28;20228;-81
2021/12/10 01:13:35;;;;;;;32.77;17.13;;;4.10;99.90;;;;;;5088532;28;20200;-80
2021/12/10 01:23:39;;;;;;;36.57;19.27;;;4.10;99.90;;;;;;5088925;28;20588;-80
2021/12/10 01:24:51;;;;;;;32.40;18.03;;;4.10;99.90;;;;;;5109552;27;20602;-81
2021/12/10 01:27:28;;;;;;;37.23;20.33;;;4.00;99.90;;;;;;5108349;28;20656;-83
2021/12/10 01:29:57;;;;;;;34.13;19.90;;;4.00;99.90;;;;;;5108896;28;20243;-80
2021/12/10 01:32:27;;;;;;;45.83;20.97;;;4.00;99.90;;;;;;5108227;28;20231;-81
2021/12/10 01:34:54;;;;;;;39.93;21.47;;;4.00;99.90;;;;;;5098196;27;20204;-80
2021/12/10 01:37:21;;;;;;;42.67;22.40;;;4.00;99.90;;;;;;5086945;28;20200;-82
2021/12/10 01:39:49;;;;;;;36.70;23.07;;;3.90;99.90;;;;;;5088478;28;20204;-81
2021/12/10 01:42:30;;;;;;;40.57;24.07;;;3.90;99.90;;;;;;5087244;28;20211;-80
2021/12/10 01:45:00;;;;;;;31.90;20.80;;;4.00;99.90;;;;;;5098571;28;20621;-83
2021/12/10 01:47:29;;;;;;;31.57;20.43;;;4.00;99.90;;;;;;5108763;28;20299;-81
2021/12/10 01:49:56;;;;;;;38.20;21.57;;;4.00;99.90;;;;;;5107904;28;20661;-80
2021/12/10 01:52:23;;;;;;;41.63;23.77;;;4.00;99.90;;;;;;5089258;28;20220;-80
2021/12/10 01:54:55;;;;;;;36.07;22.00;;;4.00;99.90;;;;;;5087595;28;20641;-81
2021/12/10 01:57:25;;;;;;;41.63;21.57;;;4.00;99.90;;;;;;5106054;28;20893;-81
2021/12/10 01:59:52;;;;;;;38.93;22.43;;;4.00;99.90;;;;;;5112830;28;20211;-81
2021/12/10 02:02:23;;;;;;;35.67;21.13;;;4.00;99.90;;;;;;5112516;28;20256;-81
2021/12/10 02:04:51;;;;;;;33.83;21.83;;;4.00;99.90;;;;;;5112278;28;20197;-81
2021/12/10 02:07:20;;;;;;;36.73;21.00;;;3.90;99.90;;;;;;5093718;27;20268;-81
2021/12/10 02:09:48;;;;;;;38.50;20.33;;;3.90;99.90;;;;;;5092147;28;20212;-81
2021/12/10 02:12:18;;;;;;;34.07;21.30;;;3.90;99.90;;;;;;5106121;27;20203;-80
2021/12/10 02:14:46;;;;;;;37.60;20.93;;;3.90;99.90;;;;;;5112489;28;20200;-80
2021/12/10 02:17:13;;;;;;;32.87;22.00;;;3.90;99.90;;;;;;5112114;28;20196;-80
2021/12/10 02:19:40;;;;;;;31.03;20.77;;;3.90;99.90;;;;;;5112642;28;20215;-81
2021/12/10 02:22:09;;;;;;;32.43;21.33;;;3.90;99.90;;;;;;5111992;28;20208;-81
2021/12/10 02:24:36;;;;;;;32.13;20.27;;;3.90;99.90;;;;;;5111377;28;20203;-81
2021/12/10 02:27:07;;;;;;;33.67;19.40;;;3.90;99.90;;;;;;5112085;27;20228;-81
2021/12/10 02:29:37;;;;;;;34.93;20.30;;;3.90;99.90;;;;;;5111960;28;20206;-81
2021/12/10 02:32:06;;;;;;;34.50;18.43;;;3.90;99.90;;;;;;5122090;27;20266;-81
2021/12/10 02:34:33;;;;;;;34.10;17.50;;;3.90;99.90;;;;;;5131794;27;20339;-81
2021/12/10 02:36:59;;;;;;;29.13;17.97;;;3.90;99.90;;;;;;5131820;27;20206;-80
2021/12/10 02:39:29;;;;;;;33.90;17.80;;;3.90;99.90;;;;;;5096511;27;20550;-82
2021/12/10 02:41:56;;;;;;;30.67;18.00;;;3.80;99.90;;;;;;5092297;28;20212;-80
2021/12/10 02:44:27;;;;;;;27.03;16.13;;;3.80;99.90;;;;;;5091136;28;20192;-81
2021/12/10 02:46:55;;;;;;;24.37;15.30;;;3.80;99.90;;;;;;5091497;28;20232;-81
2021/12/10 02:49:22;;;;;;;26.60;16.37;;;3.80;99.90;;;;;;5091645;28;20211;-82
2021/12/10 02:51:49;;;;;;;24.93;16.43;;;3.80;99.90;;;;;;5096386;27;20215;-81
2021/12/10 02:54:22;;;;;;;23.03;15.47;;;3.80;99.90;;;;;;5091231;28;20203;-81
2021/12/10 02:56:50;;;;;;;27.70;15.70;;;3.80;99.90;;;;;;5100752;27;20245;-82
2021/12/10 02:59:18;;;;;;;25.57;16.03;;;3.80;99.90;;;;;;5111419;28;20206;-81
2021/12/10 03:01:47;;;;;;;30.23;17.53;;;3.80;99.90;;;;;;5111444;28;20207;-79
2021/12/10 03:04:15;;;;;;;29.93;15.67;;;3.80;99.90;;;;;;5111767;27;20257;-81
2021/12/10 03:06:46;;;;;;;19.30;14.60;;;3.80;99.90;;;;;;5111111;28;20228;-81
2021/12/10 03:09:13;;;;;;;22.50;14.80;;;3.80;99.90;;;;;;5106580;28;20267;-82
2021/12/10 03:11:46;;;;;;;19.83;13.00;;;3.80;99.90;;;;;;5091190;28;20475;-81
2021/12/10 03:14:17;;;;;;;22.60;12.97;;;3.80;99.90;;;;;;5089774;28;20546;-81
2021/12/10 03:16:46;;;;;;;18.57;12.13;;;3.80;99.90;;;;;;5090781;28;20192;-81
2021/12/10 03:19:13;;;;;;;17.27;11.83;;;3.80;99.90;;;;;;5090663;28;20192;-80
2021/12/10 03:21:44;;;;;;;18.13;11.40;;;3.80;99.90;;;;;;5100692;27;20203;-82
2021/12/10 03:24:12;;;;;;;15.37;10.53;;;3.90;99.90;;;;;;5131850;27;20255;-81
2021/12/10 03:26:39;;;;;;;22.03;10.70;;;3.90;99.90;;;;;;5107096;27;20290;-82
2021/12/10 03:29:06;;;;;;;16.80;10.60;;;3.90;99.90;;;;;;5089723;28;20212;-80
2021/12/10 03:31:35;;;;;;;22.33;9.97;;;3.90;99.90;;;;;;5090284;27;20208;-80
2021/12/10 03:34:04;;;;;;;19.43;10.20;;;3.90;99.90;;;;;;5090845;28;20201;-80
2021/12/10 03:36:32;;;;;;;14.87;9.90;;;4.00;99.90;;;;;;5108774;27;20623;-80
2021/12/10 03:38:59;;;;;;;15.60;9.10;;;3.90;99.90;;;;;;5110740;28;20196;-81
2021/12/10 03:41:26;;;;;;;18.63;9.27;;;3.90;99.90;;;;;;5110032;28;20196;-81
2021/12/10 03:43:54;;;;;;;16.77;9.43;;;3.90;99.90;;;;;;5092989;27;20197;-82
2021/12/10 03:46:22;;;;;;;15.60;8.83;;;4.00;99.90;;;;;;5109895;28;20220;-81
2021/12/10 03:48:51;;;;;;;16.73;7.53;;;4.00;99.90;;;;;;5110177;28;20520;-81
2021/12/10 03:51:20;;;;;;;13.73;7.50;;;4.00;99.90;;;;;;5104379;27;20209;-80
2021/12/10 03:53:47;;;;;;;11.87;6.97;;;4.00;99.90;;;;;;5090495;28;20208;-82
2021/12/10 03:56:21;;;;;;;13.77;7.23;;;4.00;99.90;;;;;;5089114;28;20851;-81
2021/12/10 03:58:49;;;;;;;14.27;7.93;;;4.00;99.90;;;;;;5089353;28;20229;-79
2021/12/10 04:01:20;;;;;;;16.23;8.33;;;4.00;99.90;;;;;;5104187;28;20207;-81
2021/12/10 04:03:52;;;;;;;13.03;7.03;;;4.00;99.90;;;;;;5110000;28;20207;-80
2021/12/10 04:06:19;;;;;;;15.70;7.10;;;4.00;99.90;;;;;;5110106;28;20238;-80
2021/12/10 04:08:47;;;;;;;17.63;8.27;;;4.00;99.90;;;;;;5108126;28;20192;-79
2021/12/10 04:11:16;;;;;;;20.53;7.83;;;4.00;99.90;;;;;;5109889;28;20219;-80
2021/12/10 04:13:43;;;;;;;14.00;6.77;;;4.00;99.90;;;;;;5108937;28;20236;-81
2021/12/10 04:16:10;;;;;;;17.43;7.30;;;4.00;99.90;;;;;;5100605;27;20204;-81
2021/12/10 04:18:37;;;;;;;9.60;6.07;;;4.10;99.90;;;;;;5088499;28;20189;-80
2021/12/10 04:21:07;;;;;;;15.43;7.90;;;4.10;99.90;;;;;;5088928;28;20204;-80
2021/12/10 04:23:35;;;;;;;12.93;6.53;;;4.10;99.90;;;;;;5102310;28;20293;-80
2021/12/10 04:26:03;;;;;;;11.67;6.50;;;4.10;99.90;;;;;;5109158;28;20207;-81
2021/12/10 04:28:29;;;;;;;12.57;6.23;;;4.20;99.90;;;;;;5109386;28;20196;-81
2021/12/10 04:30:56;;;;;;;19.03;6.90;;;4.20;99.90;;;;;;5109096;28;20196;-81
2021/12/10 04:33:26;;;;;;;14.40;6.40;;;4.20;99.90;;;;;;5091522;28;20209;-81
2021/12/10 04:35:55;;;;;;;9.80;6.17;;;4.20;99.90;;;;;;5091832;27;20270;-81
2021/12/10 04:38:24;;;;;;;12.70;5.73;;;4.20;99.90;;;;;;5108402;28;20192;-81
2021/12/10 04:40:53;;;;;;;13.37;6.47;;;4.20;99.90;;;;;;5108784;28;20203;-81
2021/12/10 04:43:23;;;;;;;21.43;7.20;;;4.20;99.90;;;;;;5117777;27;20214;-81
2021/12/10 04:45:53;;;;;;;12.60;6.03;;;4.20;99.90;;;;;;5116322;27;20366;-80
2021/12/10 04:48:20;;;;;;;11.30;5.83;;;4.20;99.90;;;;;;5130114;27;20182;-81
2021/12/10 04:50:47;;;;;;;12.10;5.93;;;4.20;99.90;;;;;;5130415;27;20195;-80
2021/12/10 04:53:14;;;;;;;11.93;5.90;;;4.20;99.90;;;;;;5127620;27;20771;-81
2021/12/10 04:55:43;;;;;;;15.80;5.90;;;4.20;99.90;;;;;;5110330;28;20273;-83
2021/12/10 04:58:10;;;;;;;13.90;5.53;;;4.20;99.90;;;;;;5110134;28;20509;-80
2021/12/10 05:00:42;;;;;;;9.80;5.43;;;4.20;99.90;;;;;;5108457;28;20544;-81
2021/12/10 05:03:09;;;;;;;11.93;4.70;;;4.20;99.90;;;;;;5092317;28;20211;-82
2021/12/10 05:05:37;;;;;;;11.93;5.27;;;4.20;99.90;;;;;;5089278;28;20188;-82
2021/12/10 05:08:05;;;;;;;13.37;6.20;;;4.20;99.90;;;;;;5089063;28;20213;-81
2021/12/10 05:10:33;;;;;;;7.53;4.83;;;4.20;99.90;;;;;;5089688;28;20215;-81
2021/12/10 05:13:02;;;;;;;11.43;6.13;;;4.20;99.90;;;;;;5122302;27;20203;-80
2021/12/10 05:15:31;;;;;;;10.47;5.07;;;4.20;99.90;;;;;;5130054;27;20203;-81
2021/12/10 05:17:58;;;;;;;10.40;4.73;;;4.20;99.90;;;;;;5130191;27;20199;-81
2021/12/10 05:20:29;;;;;;;8.97;4.77;;;4.20;99.90;;;;;;5116639;27;20204;-83
2021/12/10 05:22:55;;;;;;;10.87;4.47;;;4.20;99.90;;;;;;5109318;28;20192;-81
2021/12/10 05:25:25;;;;;;;7.53;4.37;;;4.20;99.90;;;;;;5108515;28;20215;-81
2021/12/10 05:27:54;;;;;;;9.50;4.13;;;4.20;99.90;;;;;;5109124;28;20219;-82
2021/12/10 05:30:27;;;;;;;8.83;4.47;;;4.20;99.90;;;;;;5109803;28;20204;-82
2021/12/10 05:32:54;;;;;;;9.40;4.53;;;4.20;99.90;;;;;;5108782;28;20195;-83
2021/12/10 05:35:22;;;;;;;14.80;4.57;;;4.20;99.90;;;;;;5108671;27;20237;-81
2021/12/10 05:37:49;;;;;;;8.10;4.23;;;4.20;99.90;;;;;;5109331;28;20717;-81
2021/12/10 05:40:17;;;;;;;8.60;3.60;;;4.20;99.90;;;;;;5108139;28;20207;-82
2021/12/10 05:42:47;;;;;;;12.33;5.27;;;4.20;99.90;;;;;;5095610;28;20216;-81
2021/12/10 05:45:16;;;;;;;11.33;4.20;;;4.20;99.90;;;;;;5102317;28;20204;-82
2021/12/10 05:47:46;;;;;;;7.43;4.60;;;4.30;99.90;;;;;;5109109;28;20242;-82
2021/12/10 05:50:15;;;;;;;11.20;4.37;;;4.30;99.90;;;;;;5108874;28;20207;-82
2021/12/10 05:52:42;;;;;;;9.33;4.20;;;4.30;99.90;;;;;;5108437;28;20212;-82
2021/12/10 05:55:10;;;;;;;8.13;4.17;;;4.30;99.90;;;;;;5109483;28;20235;-80
2021/12/10 05:57:38;;;;;;;5.23;3.77;;;4.30;99.90;;;;;;5108195;28;20724;-82
2021/12/10 06:00:08;;;;;;;9.57;4.53;;;4.30;99.90;;;;;;5097393;28;20211;-82
2021/12/10 06:02:35;;;;;;;14.57;4.03;;;4.30;99.90;;;;;;5088509;28;20196;-82
2021/12/10 06:05:04;;;;;;;9.80;4.63;;;4.30;99.90;;;;;;5088305;28;20207;-81
2021/12/10 06:07:31;;;;;;;13.30;5.07;;;4.40;99.90;;;;;;5094138;28;20231;-81
2021/12/10 06:09:57;;;;;;;10.13;5.00;;;4.40;99.90;;;;;;5108180;28;20219;-81
2021/12/10 06:12:24;;;;;;;11.10;4.30;;;4.40;99.90;;;;;;5108659;28;20203;-82
2021/12/10 06:14:51;;;;;;;14.33;4.97;;;4.40;99.90;;;;;;5108257;28;20211;-82
2021/12/10 06:17:18;;;;;;;11.07;4.67;;;4.40;99.90;;;;;;5107875;28;20196;-81
2021/12/10 06:19:45;;;;;;;5.80;4.13;;;4.40;99.90;;;;;;5094766;28;20247;-82
2021/12/10 06:22:14;;;;;;;10.50;4.43;;;4.40;99.90;;;;;;5087908;28;20212;-81
2021/12/10 06:24:40;;;;;;;9.17;4.73;;;4.40;99.90;;;;;;5087043;28;20573;-82
2021/12/10 06:27:07;;;;;;;8.83;4.00;;;4.40;99.90;;;;;;5087752;28;20220;-82
2021/12/10 06:29:36;;;;;;;14.23;4.70;;;4.40;99.90;;;;;;5087768;28;20196;-82
2021/12/10 06:32:04;;;;;;;11.83;5.23;;;4.40;99.90;;;;;;5116044;28;20237;-81
2021/12/10 06:34:30;;;;;;;11.37;4.33;;;4.40;99.90;;;;;;5127231;28;20207;-79
2021/12/10 06:36:57;;;;;;;9.00;4.93;;;4.40;99.90;;;;;;5127662;28;20195;-81
2021/12/10 06:39:25;;;;;;;11.00;4.50;;;4.40;99.90;;;;;;5127468;28;20871;-80
2021/12/10 06:41:54;;;;;;;7.90;4.17;;;4.40;99.90;;;;;;5128276;28;20196;-81
2021/12/10 06:44:21;;;;;;;10.63;4.13;;;4.50;99.90;;;;;;5122178;27;20645;-79
2021/12/10 06:46:49;;;;;;;12.27;4.07;;;4.50;99.90;;;;;;5111206;28;20207;-81
2021/12/10 06:49:17;;;;;;;10.57;4.60;;;4.50;99.90;;;;;;5111248;28;20800;-80
2021/12/10 06:51:44;;;;;;;10.60;4.03;;;4.50;99.90;;;;;;5110784;28;20200;-81
2021/12/10 06:54:11;;;;;;;9.33;3.77;;;4.50;99.90;;;;;;5111589;28;20200;-81
2021/12/10 06:56:40;;;;;;;10.53;4.50;;;4.50;99.90;;;;;;5109601;28;20223;-80
2021/12/10 06:59:09;;;;;;;11.73;4.50;;;4.50;99.90;;;;;;5090816;28;20185;-80
2021/12/10 07:01:39;;;;;;;16.33;5.10;;;4.50;99.90;;;;;;5091231;28;20197;-79
2021/12/10 07:04:09;;;;;;;8.23;4.00;;;4.50;99.90;;;;;;5091784;28;20227;-79
2021/12/10 07:06:37;;;;;;;8.00;3.77;;;4.50;99.90;;;;;;5091179;28;20200;-80
2021/12/10 07:09:08;;;;;;;9.97;5.00;;;4.40;99.90;;;;;;5091226;28;20204;-80
2021/12/10 07:11:35;;;;;;;10.40;4.17;;;4.40;99.90;;;;;;5091880;28;20236;-81
2021/12/10 07:14:04;;;;;;;8.80;3.97;;;4.40;99.90;;;;;;5091865;27;20577;-81
2021/12/10 07:16:32;;;;;;;7.97;3.47;;;4.40;99.90;;;;;;5099044;28;20201;-82
2021/12/10 07:19:00;;;;;;;8.03;3.60;;;4.50;99.90;;;;;;5109884;28;20212;-80
2021/12/10 07:21:29;;;;;;;8.73;3.57;;;4.50;99.90;;;;;;5103664;28;20212;-82
2021/12/10 07:23:56;;;;;;;11.23;4.03;;;4.50;99.90;;;;;;5099513;28;20682;-82
2021/12/10 07:26:27;;;;;;;6.87;3.93;;;4.50;99.90;;;;;;5093425;27;20208;-81
2021/12/10 07:28:54;;;;;;;6.43;3.27;;;4.50;99.90;;;;;;5090610;28;20221;-81
2021/12/10 07:31:22;;;;;;;8.97;3.13;;;4.50;99.90;;;;;;5114699;27;20215;-82
2021/12/10 07:33:49;;;;;;;9.70;3.40;;;4.50;99.90;;;;;;5130443;27;20203;-81
2021/12/10 07:36:16;;;;;;;5.87;3.20;;;4.40;99.90;;;;;;5130697;27;20584;-82
2021/12/10 07:38:44;;;;;;;6.80;2.90;;;4.50;99.90;;;;;;5131461;27;20206;-82
2021/12/10 07:41:11;;;;;;;7.40;2.50;;;4.50;99.90;;;;;;5130891;27;20199;-81
2021/12/10 07:43:39;;;;;;;13.10;3.23;;;4.50;99.90;;;;;;5114712;27;20200;-81
2021/12/10 07:46:06;;;;;;;4.87;2.83;;;4.50;99.90;;;;;;5076542;28;20875;-82
2021/12/10 07:48:35;;;;;;;12.67;3.20;;;4.50;99.90;;;;;;5109588;28;20627;-81
2021/12/10 07:51:06;;;;;;;9.33;3.33;;;4.50;99.90;;;;;;5109345;28;20203;-82
2021/12/10 07:53:34;;;;;;;6.97;2.97;;;4.50;99.90;;;;;;5089835;28;20208;-80
2021/12/10 07:56:04;;;;;;;8.97;3.53;;;4.60;99.90;;;;;;5093847;27;20236;-80
2021/12/10 07:58:33;;;;;;;8.80;2.97;;;4.60;99.90;;;;;;5109829;28;20211;-80
2021/12/10 08:01:02;;;;;;;14.93;3.93;;;4.60;99.90;;;;;;5110194;28;20192;-80
2021/12/10 08:03:29;;;;;;;7.37;3.23;;;4.60;99.90;;;;;;5106609;28;20204;-81
2021/12/10 08:05:57;;;;;;;7.17;3.03;;;4.60;99.90;;;;;;5110249;28;20192;-80
2021/12/10 08:08:24;;;;;;;9.87;3.23;;;4.60;99.90;;;;;;5110849;27;20250;-81
2021/12/10 08:10:51;;;;;;;9.77;3.50;;;4.60;99.90;;;;;;5110177;28;20223;-80
2021/12/10 08:13:22;;;;;;;8.37;3.77;;;4.60;99.90;;;;;;5110707;28;20200;-81
2021/12/10 08:15:49;;;;;;;6.77;3.70;;;4.60;99.90;;;;;;5110433;28;20701;-81
2021/12/10 08:18:15;;;;;;;12.60;4.37;;;4.60;99.90;;;;;;5093489;28;20204;-81
2021/12/10 08:20:43;;;;;;;9.63;4.63;;;4.60;99.90;;;;;;5089912;28;20589;-82
2021/12/10 08:23:11;;;;;;;8.30;3.97;;;4.60;99.90;;;;;;5100700;28;20211;-81
2021/12/10 08:25:38;;;;;;;6.10;3.67;;;4.60;99.90;;;;;;5110595;28;20200;-82
2021/12/10 08:28:06;;;;;;;9.43;3.70;;;4.50;99.90;;;;;;5110211;28;20536;-81
2021/12/10 08:30:37;;;;;;;10.23;4.47;;;4.60;99.90;;;;;;5108806;28;20192;-80
2021/12/10 08:33:11;;;;;;;5.40;4.03;;;4.60;99.90;;;;;;5109574;28;20275;-81
2021/12/10 08:35:38;;;;;;;9.17;3.90;;;4.50;99.90;;;;;;5109582;28;20714;-79
2021/12/10 08:38:04;;;;;;;10.40;3.90;;;4.50;99.90;;;;;;5089630;28;20208;-81
2021/12/10 08:40:37;;;;;;;8.03;3.80;;;4.50;99.90;;;;;;5089883;27;20212;-80
2021/12/10 08:43:05;;;;;;;10.50;4.63;;;4.50;99.90;;;;;;5089913;28;20204;-81
2021/12/10 08:45:33;;;;;;;11.87;3.90;;;4.50;99.90;;;;;;5103687;28;20786;-81
2021/12/10 08:48:00;;;;;;;11.17;4.47;;;4.50;99.90;;;;;;5108003;28;20228;-81
2021/12/10 08:50:28;;;;;;;8.17;3.60;;;4.50;99.90;;;;;;5090424;28;20207;-81
2021/12/10 08:52:58;;;;;;;8.40;4.27;;;4.50;99.90;;;;;;5102976;27;20210;-82
2021/12/10 08:55:26;;;;;;;10.20;4.07;;;4.50;99.90;;;;;;5130418;27;20223;-82
2021/12/10 08:57:56;;;;;;;6.33;4.37;;;4.50;99.90;;;;;;5130166;27;20637;-82
2021/12/10 09:00:23;;;;;;;10.07;4.50;;;4.50;99.90;;;;;;5130555;27;20195;-81
2021/12/10 09:02:50;;;;;;;10.53;4.60;;;4.40;99.90;;;;;;5130399;27;20198;-80
2021/12/10 09:05:17;;;;;;;10.20;4.53;;;4.40;99.90;;;;;;5128545;27;20591;-82
2021/12/10 09:07:45;;;;;;;9.23;4.03;;;4.40;99.90;;;;;;5099377;28;20228;-81
2021/12/10 09:10:13;;;;;;;6.87;4.63;;;4.50;99.90;;;;;;5089256;28;20220;-82
2021/12/10 09:12:41;;;;;;;9.70;5.00;;;4.50;99.90;;;;;;5088712;28;20601;-81
2021/12/10 09:15:11;;;;;;;11.43;4.87;;;4.50;99.90;;;;;;5088703;28;20216;-82
2021/12/10 09:17:41;;;;;;;8.60;4.67;;;4.50;99.90;;;;;;5088312;28;20249;-82
2021/12/10 09:20:13;;;;;;;9.53;4.90;;;4.50;99.90;;;;;;5088339;28;20496;-82
2021/12/10 09:22:40;;;;;;;10.57;4.30;;;4.50;99.90;;;;;;5105882;28;20200;-80
2021/12/10 09:25:08;;;;;;;9.47;4.93;;;4.50;99.90;;;;;;5107818;28;20192;-81
2021/12/10 09:27:35;;;;;;;12.23;5.10;;;4.50;99.90;;;;;;5107523;28;20289;-81
2021/12/10 09:30:04;;;;;;;8.63;5.27;;;4.50;99.90;;;;;;5108162;28;20207;-80
2021/12/10 09:32:33;;;;;;;8.37;4.50;;;4.50;99.90;;;;;;5108020;28;20200;-80
2021/12/10 09:35:05;;;;;;;11.60;5.40;;;4.50;99.90;;;;;;5107059;27;20211;-80
2021/12/10 09:37:32;;;;;;;12.17;5.80;;;4.50;99.90;;;;;;5107688;28;20196;-80
2021/12/10 09:39:59;;;;;;;12.47;5.77;;;4.50;99.90;;;;;;5108327;28;20580;-79
2021/12/10 09:42:26;;;;;;;14.10;5.10;;;4.50;99.90;;;;;;5106830;28;20196;-81
2021/12/10 09:44:56;;;;;;;9.20;4.47;;;4.50;99.90;;;;;;5098735;28;20240;-80
2021/12/10 09:47:23;;;;;;;9.50;5.37;;;4.50;99.90;;;;;;5106988;28;20200;-80
2021/12/10 09:49:54;;;;;;;10.70;6.17;;;4.50;99.90;;;;;;5108654;28;20533;-81
2021/12/10 09:52:24;;;;;;;9.90;4.90;;;4.50;99.90;;;;;;5093524;28;20216;-83
2021/12/10 09:54:52;;;;;;;10.73;5.87;;;4.50;99.90;;;;;;5098688;28;20743;-81
2021/12/10 09:57:23;;;;;;;11.67;5.67;;;4.50;99.90;;;;;;5129795;28;20238;-82
2021/12/10 09:59:51;;;;;;;7.57;5.33;;;4.50;99.90;;;;;;5130003;28;20191;-80
2021/12/10 10:02:19;;;;;;;11.80;5.87;;;4.50;99.90;;;;;;5129680;28;20203;-83
2021/12/10 10:04:49;;;;;;;14.03;5.93;;;4.50;99.90;;;;;;5103592;28;20317;-81
2021/12/10 10:07:23;;;;;;;11.33;6.50;;;4.50;99.90;;;;;;5088858;28;20834;-83
2021/12/10 10:09:52;;;;;;;11.87;6.20;;;4.50;99.90;;;;;;5087844;28;20213;-82
2021/12/10 10:12:23;;;;;;;16.40;7.40;;;4.50;99.90;;;;;;5108883;28;20306;-81
2021/12/10 10:14:50;;;;;;;9.30;6.20;;;4.50;99.90;;;;;;5108336;28;20483;-82
2021/12/10 10:17:19;;;;;;;12.00;6.60;;;4.50;99.90;;;;;;5106329;28;20192;-82
2021/12/10 10:19:46;;;;;;;11.23;5.90;;;4.50;99.90;;;;;;5110990;28;20203;-81
2021/12/10 10:22:19;;;;;;;15.60;7.33;;;4.50;99.90;;;;;;5111603;27;20207;-82
2021/12/10 10:24:46;;;;;;;10.57;6.23;;;4.50;99.90;;;;;;5110330;28;20872;-82
2021/12/10 10:27:16;;;;;;;14.40;7.60;;;4.60;99.90;;;;;;5112962;28;20204;-82
2021/12/10 10:29:49;;;;;;;11.33;6.47;;;4.60;99.90;;;;;;5121706;27;20231;-81
2021/12/10 10:32:20;;;;;;;15.17;6.50;;;4.60;99.90;;;;;;5134080;27;20195;-82
2021/12/10 10:34:50;;;;;;;15.57;6.73;;;4.60;99.90;;;;;;5132834;27;20196;-81
2021/12/10 10:37:19;;;;;;;12.53;6.57;;;4.70;99.90;;;;;;5091482;28;20193;-80
2021/12/10 10:39:46;;;;;;;19.30;9.10;;;4.70;99.90;;;;;;5098356;27;20204;-82
2021/12/10 10:42:17;;;;;;;10.13;6.97;;;4.70;99.90;;;;;;5113221;28;20203;-80
2021/12/10 10:44:45;;;;;;;10.90;7.07;;;4.70;99.90;;;;;;5111275;28;20192;-81
2021/12/10 10:47:12;;;;;;;14.33;8.33;;;4.70;99.90;;;;;;5112590;28;20200;-83
2021/12/10 10:49:43;;;;;;;13.33;8.53;;;4.80;99.90;;;;;;5111946;27;20311;-83
2021/12/10 10:52:23;;;;;;;14.37;7.70;;;4.80;99.90;;;;;;5112101;28;20207;-84
2021/12/10 10:54:54;;;;;;;15.33;8.07;;;4.70;99.90;;;;;;5113246;28;20770;-83
2021/12/10 10:57:24;;;;;;;11.80;7.07;;;4.70;99.90;;;;;;5113289;28;20203;-83
2021/12/10 10:59:56;;;;;;;17.17;8.03;;;4.80;99.90;;;;;;5112411;28;20228;-83
2021/12/10 11:02:24;;;;;;;15.63;7.07;;;4.80;99.90;;;;;;5098433;28;20989;-82
2021/12/10 11:04:52;;;;;;;11.87;7.23;;;4.80;99.90;;;;;;5092766;28;20633;-82
2021/12/10 11:07:24;;;;;;;16.83;7.97;;;4.80;99.90;;;;;;5107337;28;20222;-84
2021/12/10 11:09:54;;;;;;;11.80;7.13;;;4.80;99.90;;;;;;5112599;27;20261;-84
2021/12/10 11:12:25;;;;;;;21.00;8.63;;;4.80;99.90;;;;;;5112708;28;20210;-86
2021/12/10 11:14:56;;;;;;;13.83;7.40;;;4.80;99.90;;;;;;5113017;28;20604;-80
2021/12/10 11:17:29;;;;;;;12.40;7.70;;;4.80;99.90;;;;;;5112723;28;20616;-80
2021/12/10 11:19:58;;;;;;;13.90;7.87;;;4.80;99.90;;;;;;5099782;28;20192;-83
2021/12/10 11:22:29;;;;;;;16.50;8.13;;;4.90;99.90;;;;;;5091210;28;20208;-83
2021/12/10 11:24:58;;;;;;;16.67;8.57;;;4.90;99.90;;;;;;5092812;28;20205;-82
2021/12/10 11:27:31;;;;;;;15.27;8.77;;;4.90;99.90;;;;;;5107867;27;20203;-82
2021/12/10 11:30:12;;;;;;;16.50;8.67;;;4.90;99.90;;;;;;5133020;27;20219;-83
2021/12/10 11:32:41;;;;;;;13.93;7.97;;;4.90;99.90;;;;;;5132534;27;20199;-82
2021/12/10 11:35:12;;;;;;;12.63;7.73;;;4.90;99.90;;;;;;5116096;27;20211;-85
2021/12/10 11:37:55;;;;;;;16.53;7.83;;;4.90;99.90;;;;;;5112189;28;20208;-82
2021/12/10 11:40:35;;;;;;;15.17;7.50;;;4.90;99.90;;;;;;5111099;28;20215;-83
2021/12/10 11:43:16;;;;;;;14.27;8.77;;;4.90;99.90;;;;;;5111115;28;20211;-82
2021/12/10 11:45:50;;;;;;;12.53;8.97;;;4.90;99.90;;;;;;5113637;28;20198;-85
2021/12/10 11:51:06;;;;;;;13.73;7.60;;;5.00;99.90;;;;;;5171977;22;20237;-83
2021/12/10 11:53:45;;;;;;;14.40;9.20;;;5.00;99.90;;;;;;5048374;28;20232;-84
2021/12/10 11:56:16;;;;;;;14.73;8.73;;;5.00;99.90;;;;;;5058278;28;20290;-84
2021/12/10 11:58:43;;;;;;;15.60;9.20;;;5.00;99.90;;;;;;5060657;28;20202;-84
2021/12/10 12:01:17;;;;;;;14.27;8.00;;;5.00;99.90;;;;;;5050381;28;20598;-84
2021/12/10 12:03:44;;;;;;;12.33;7.97;;;5.10;99.90;;;;;;5051162;28;20798;-83
2021/12/10 12:06:12;;;;;;;14.53;9.00;;;5.10;99.90;;;;;;5053450;28;20512;-83
2021/12/10 12:08:39;;;;;;;14.50;7.83;;;5.20;99.90;;;;;;5070189;28;20236;-83
2021/12/10 12:11:09;;;;;;;15.20;8.03;;;5.20;99.90;;;;;;5071260;28;20872;-82
2021/12/10 12:13:39;;;;;;;10.33;7.20;;;5.20;99.90;;;;;;5065134;28;20840;-84
2021/12/10 12:16:13;;;;;;;16.60;7.50;;;5.30;99.90;;;;;;5049860;28;20267;-81
2021/12/10 12:18:42;;;;;;;13.17;8.67;;;5.30;99.90;;;;;;5069046;28;20209;-83
2021/12/10 12:27:13;;;;;;;13.03;7.80;;;5.30;99.90;;;;;;5049329;28;20224;-80
2021/12/10 12:29:42;;;;;;;11.53;7.97;;;5.30;99.90;;;;;;5047044;28;20303;-82
2021/12/10 12:32:11;;;;;;;11.50;7.37;;;5.30;99.90;;;;;;5048439;28;20413;-79
2021/12/10 12:34:38;;;;;;;13.33;8.80;;;5.30;99.90;;;;;;5064184;28;20212;-82
2021/12/10 12:37:06;;;;;;;10.43;7.27;;;5.30;99.90;;;;;;5068048;28;20197;-78
2021/12/10 12:39:38;;;;;;;15.73;8.33;;;5.30;99.90;;;;;;5068384;28;20204;-80
2021/12/10 12:42:17;;;;;;;13.37;8.40;;;5.30;99.90;;;;;;5047663;28;20198;-77
2021/12/10 12:44:45;;;;;;;10.97;7.63;;;5.30;99.90;;;;;;5056190;28;20323;-79
2021/12/10 12:47:15;;;;;;;10.57;6.93;;;5.20;99.90;;;;;;5066834;28;20284;-79
2021/12/10 12:50:01;;;;;;;9.67;7.03;;;5.30;99.90;;;;;;5067123;28;20264;-81
2021/12/10 12:52:36;;;;;;;11.07;7.60;;;5.30;99.90;;;;;;5068345;28;20589;-81
2021/12/10 12:55:15;;;;;;;11.07;7.17;;;5.30;99.90;;;;;;5068771;28;20196;-83
2021/12/10 12:57:46;;;;;;;11.90;7.83;;;5.30;99.90;;;;;;5068179;28;20201;-80
2021/12/10 13:00:29;;;;;;;13.93;8.30;;;5.30;99.90;;;;;;5069861;28;20201;-82
2021/12/10 13:03:00;;;;;;;15.10;7.63;;;5.30;99.90;;;;;;5056990;28;20271;-79
2021/12/10 13:05:38;;;;;;;9.80;7.03;;;5.20;99.90;;;;;;5049116;28;20227;-79
2021/12/10 13:08:08;;;;;;;11.57;7.67;;;5.30;99.90;;;;;;5049299;28;20202;-79
2021/12/10 13:10:38;;;;;;;12.90;8.30;;;5.30;99.90;;;;;;5049847;28;20598;-82